Time;durP1;ratioP1;P1;durP2;ratioP2;P2;SDS_P1;SDS_P2;PMS_P1;PMS_P2;Temp;Humidity;BMP_temperature;BMP_pressure;BME280_temperature;BME280_humidity;BME280_pressure;Samples;Min_cycle;Max_cycle;Signal;HPM_P1;HPM_P2
2022/01/04 00:00:50;;;;;;;27.40;5.60;;;8.50;99.90;;;;;;5055919;28;20499;-90
2022/01/04 00:03:42;;;;;;;22.75;4.93;;;8.50;99.90;;;;;;5055331;28;20029;-90
2022/01/04 00:06:30;;;;;;;27.95;5.00;;;8.50;99.90;;;;;;5055152;28;20052;-90
2022/01/04 00:09:00;;;;;;;33.50;5.45;;;8.40;99.90;;;;;;5070565;28;20040;-90
2022/01/04 00:13:21;;;;;;;37.28;5.05;;;9.00;99.90;;;;;;5039104;28;20044;-90
2022/01/04 00:14:47;;;;;;;30.05;5.82;;;8.40;99.90;;;;;;5057045;28;20044;-90
2022/01/04 00:17:24;;;;;;;31.73;5.43;;;8.40;99.90;;;;;;5069932;28;20484;-90
2022/01/04 00:20:23;;;;;;;29.02;4.88;;;8.40;99.90;;;;;;5070521;28;20029;-90
2022/01/04 00:22:51;;;;;;;23.10;5.30;;;8.30;99.90;;;;;;5037939;28;20045;-90
2022/01/04 00:28:53;;;;;;;27.42;5.35;;;8.30;99.90;;;;;;5051158;28;20056;-91
2022/01/04 00:35:40;;;;;;;23.35;4.65;;;8.30;99.90;;;;;;5054310;28;20040;-91
2022/01/04 00:38:09;;;;;;;29.90;4.97;;;7.90;99.90;;;;;;5053525;28;20040;-91
2022/01/04 00:40:42;;;;;;;36.28;5.72;;;8.20;99.90;;;;;;5054777;28;20037;-91
2022/01/04 00:43:46;;;;;;;37.25;5.65;;;8.20;99.90;;;;;;5071022;28;20481;-88
2022/01/04 00:46:17;;;;;;;34.30;5.25;;;8.20;99.90;;;;;;5042526;28;20080;-88
2022/01/04 00:51:35;;;;;;;33.63;6.32;;;8.30;99.90;;;;;;5070965;28;20527;-88
2022/01/04 00:54:04;;;;;;;34.47;5.03;;;8.70;99.90;;;;;;5073029;28;20087;-89
2022/01/04 00:56:30;;;;;;;31.13;5.93;;;8.30;99.90;;;;;;5071462;28;20037;-88
2022/01/04 00:58:56;;;;;;;40.08;6.60;;;8.20;99.90;;;;;;5071291;28;20066;-88
2022/01/04 01:01:41;;;;;;;31.05;5.78;;;8.30;99.90;;;;;;5072524;28;20051;-89
2022/01/04 01:04:18;;;;;;;31.75;6.72;;;8.30;99.90;;;;;;5035292;28;20037;-89
2022/01/04 01:06:53;;;;;;;31.00;5.95;;;8.20;99.90;;;;;;5054102;28;20055;-89
2022/01/04 01:09:21;;;;;;;32.03;6.03;;;8.20;99.90;;;;;;5051127;28;20497;-89
2022/01/04 01:11:50;;;;;;;37.65;6.40;;;8.30;99.90;;;;;;5048612;28;20467;-89
2022/01/04 01:14:26;;;;;;;35.80;5.60;;;9.40;99.90;;;;;;5054746;28;20037;-89
2022/01/04 01:17:13;;;;;;;33.88;6.63;;;8.60;99.90;;;;;;5071319;28;20076;-89
2022/01/04 01:19:38;;;;;;;;;;;8.30;99.90;;;;;;5069163;28;20045;-90
2022/01/04 01:22:18;;;;;;;33.05;6.28;;;8.30;99.90;;;;;;5054784;28;20410;-90
2022/01/04 01:24:47;;;;;;;39.30;6.80;;;8.50;99.90;;;;;;5054235;28;20495;-90
2022/01/04 01:27:18;;;;;;;35.40;6.38;;;8.30;99.90;;;;;;5054937;28;20478;-90
2022/01/04 01:29:47;;;;;;;28.55;6.15;;;8.90;99.90;;;;;;5055153;28;20507;-90
2022/01/04 01:32:15;;;;;;;28.23;6.05;;;8.60;99.90;;;;;;5054764;28;20378;-90
2022/01/04 01:35:09;;;;;;;31.45;6.60;;;8.40;99.90;;;;;;5053754;28;20040;-89
2022/01/04 01:37:38;;;;;;;31.85;6.40;;;8.40;99.90;;;;;;5071558;28;20484;-91
2022/01/04 01:40:05;;;;;;;30.00;5.95;;;7.70;99.90;;;;;;5071432;28;20373;-89
2022/01/04 01:42:36;;;;;;;28.33;5.90;;;8.40;99.90;;;;;;5073209;28;20488;-90
2022/01/04 01:45:07;;;;;;;35.15;6.50;;;8.40;99.90;;;;;;5057704;28;20481;-90
2022/01/04 01:47:47;;;;;;;29.55;5.60;;;8.50;99.90;;;;;;5057852;28;20048;-90
2022/01/04 01:50:17;;;;;;;33.72;6.50;;;8.40;99.90;;;;;;5055140;28;20052;-89
2022/01/04 01:52:46;;;;;;;37.25;7.05;;;8.50;99.90;;;;;;5058057;28;20040;-91
2022/01/04 01:55:23;;;;;;;30.42;6.53;;;8.40;99.90;;;;;;5057995;28;20091;-90
2022/01/04 01:58:00;;;;;;;45.30;6.70;;;8.10;99.90;;;;;;5057685;28;20157;-90
2022/01/04 02:00:51;;;;;;;44.60;7.47;;;9.10;99.90;;;;;;5074092;28;20040;-90
2022/01/04 02:03:22;;;;;;;38.78;6.47;;;8.50;99.90;;;;;;5057820;28;20085;-90
2022/01/04 02:05:49;;;;;;;37.42;6.07;;;8.50;99.90;;;;;;5074785;28;20062;-90
2022/01/04 02:08:16;;;;;;;39.00;6.55;;;8.50;99.90;;;;;;5072652;28;20032;-90
2022/01/04 02:10:44;;;;;;;36.90;6.20;;;8.40;99.90;;;;;;5045617;28;20473;-91
2022/01/04 02:13:18;;;;;;;39.17;7.00;;;9.40;99.90;;;;;;5058322;28;20109;-91
2022/01/04 02:15:46;;;;;;;28.17;6.68;;;8.70;99.90;;;;;;5057710;28;20052;-92
2022/01/04 02:18:15;;;;;;;38.08;6.78;;;8.60;99.90;;;;;;5027692;28;20504;-91
2022/01/04 02:20:41;;;;;;;35.22;6.13;;;8.90;99.90;;;;;;5056943;28;20056;-92
2022/01/04 02:23:07;;;;;;;29.70;5.90;;;8.40;99.90;;;;;;5057678;28;20614;-90
2022/01/04 02:25:38;;;;;;;40.60;7.10;;;9.20;99.90;;;;;;5056897;28;20534;-89
2022/01/04 02:28:04;;;;;;;41.65;7.03;;;8.40;99.90;;;;;;5041028;28;20052;-89
2022/01/04 02:31:29;;;;;;;31.52;5.63;;;9.40;99.90;;;;;;5057307;28;20128;-89
2022/01/04 02:34:20;;;;;;;32.20;6.15;;;7.70;99.90;;;;;;5073797;28;20051;-89
2022/01/04 02:36:49;;;;;;;34.70;6.07;;;8.40;99.90;;;;;;5057495;28;20056;-89
2022/01/04 02:39:17;;;;;;;28.63;6.63;;;8.90;99.90;;;;;;5073236;28;20048;-89
2022/01/04 02:41:49;;;;;;;43.00;6.53;;;8.50;99.90;;;;;;5056075;28;20063;-89
2022/01/04 02:44:18;;;;;;;38.55;7.00;;;8.50;99.90;;;;;;5073613;28;20033;-89
2022/01/04 02:46:44;;;;;;;34.13;6.28;;;8.50;99.90;;;;;;5044436;28;20124;-89
2022/01/04 02:49:10;;;;;;;29.63;6.30;;;8.50;99.90;;;;;;5054219;28;20187;-88
2022/01/04 02:51:40;;;;;;;37.40;6.20;;;8.50;99.90;;;;;;5066333;28;20439;-89
2022/01/04 02:54:08;;;;;;;30.40;6.43;;;8.60;99.90;;;;;;5038790;28;20048;-89
2022/01/04 02:56:34;;;;;;;34.63;5.85;;;8.50;99.90;;;;;;5043055;28;20045;-89
2022/01/04 02:59:03;;;;;;;29.48;6.43;;;8.30;99.90;;;;;;5056924;28;20115;-88
2022/01/04 03:01:39;;;;;;;32.28;5.85;;;8.50;99.90;;;;;;5056665;28;20083;-89
2022/01/04 03:04:19;;;;;;;26.65;5.68;;;8.50;99.90;;;;;;5057954;28;20047;-89
2022/01/04 03:06:48;;;;;;;37.13;6.38;;;8.10;99.90;;;;;;5057257;28;20071;-89
2022/01/04 03:09:15;;;;;;;28.25;5.90;;;8.60;99.90;;;;;;5056234;28;20036;-89
2022/01/04 03:11:50;;;;;;;36.25;6.20;;;8.50;99.90;;;;;;5071636;28;20040;-88
2022/01/04 03:14:35;;;;;;;33.65;6.03;;;8.50;99.90;;;;;;5055212;28;20056;-89
2022/01/04 03:17:07;;;;;;;31.63;6.38;;;8.50;99.90;;;;;;5056358;28;20047;-89
2022/01/04 03:19:36;;;;;;;38.67;6.45;;;8.40;99.90;;;;;;5056675;28;20041;-88
2022/01/04 03:22:04;;;;;;;34.33;7.18;;;8.40;99.90;;;;;;5055747;28;20050;-89
2022/01/04 03:24:39;;;;;;;41.65;6.50;;;8.40;99.90;;;;;;5056188;28;20421;-89
2022/01/04 03:27:34;;;;;;;31.38;6.00;;;8.50;99.90;;;;;;5056484;28;20127;-88
2022/01/04 03:30:00;;;;;;;;;;;8.50;99.90;;;;;;5053107;28;20124;-89
2022/01/04 03:32:26;;;;;;;36.33;6.22;;;8.50;99.90;;;;;;5074324;28;19951;-88
2022/01/04 03:34:52;;;;;;;28.33;6.13;;;8.10;99.90;;;;;;5059977;28;20151;-89
2022/01/04 03:37:28;;;;;;;36.42;6.15;;;8.50;99.90;;;;;;5077881;28;20101;-89
2022/01/04 03:39:56;;;;;;;34.00;6.40;;;8.50;99.90;;;;;;5059680;28;20079;-89
2022/01/04 03:42:27;;;;;;;35.15;6.10;;;8.50;99.90;;;;;;5043209;28;20036;-90
2022/01/04 03:45:09;;;;;;;30.80;6.95;;;8.50;99.90;;;;;;5044479;28;20085;-89
2022/01/04 03:47:35;;;;;;;41.03;6.20;;;8.50;99.90;;;;;;5060269;28;20048;-89
2022/01/04 03:50:04;;;;;;;34.08;6.00;;;8.90;99.90;;;;;;5042088;28;20059;-90
2022/01/04 03:52:30;;;;;;;31.65;6.60;;;9.20;99.90;;;;;;5056136;28;20060;-89
2022/01/04 03:54:58;;;;;;;29.73;6.40;;;9.60;99.90;;;;;;5057177;28;20110;-89
2022/01/04 03:57:48;;;;;;;33.75;7.20;;;8.60;99.90;;;;;;5055524;28;20084;-90
2022/01/04 04:00:19;;;;;;;34.20;7.00;;;8.50;99.90;;;;;;5038520;28;20123;-90
2022/01/04 04:02:59;;;;;;;32.80;6.32;;;8.50;99.90;;;;;;5041040;28;20075;-89
2022/01/04 04:05:30;;;;;;;37.88;7.13;;;8.60;99.90;;;;;;5054356;28;20032;-90
2022/01/04 04:08:01;;;;;;;40.30;6.53;;;8.50;99.90;;;;;;5055318;28;20485;-89
2022/01/04 04:10:27;;;;;;;40.10;6.93;;;8.60;99.90;;;;;;5054181;28;20048;-89
2022/01/04 04:13:00;;;;;;;43.22;6.60;;;8.40;99.90;;;;;;5039853;28;20080;-90
2022/01/04 04:15:44;;;;;;;30.13;6.63;;;9.60;99.90;;;;;;5054884;28;20052;-90
2022/01/04 04:18:10;;;;;;;36.33;7.15;;;9.20;99.90;;;;;;5055393;28;20041;-91
2022/01/04 04:20:42;;;;;;;42.08;6.90;;;9.30;99.90;;;;;;5055064;28;20473;-89
2022/01/04 04:23:11;;;;;;;33.67;6.60;;;8.50;99.90;;;;;;5055767;28;20106;-89
2022/01/04 04:25:37;;;;;;;38.70;7.10;;;8.60;99.90;;;;;;5055850;28;20037;-90
2022/01/04 04:28:04;;;;;;;33.25;7.15;;;9.10;99.90;;;;;;5072106;28;20087;-90
2022/01/04 04:30:30;;;;;;;36.78;6.75;;;8.50;99.90;;;;;;5055219;28;20041;-90
2022/01/04 04:32:59;;;;;;;36.33;7.22;;;8.50;99.90;;;;;;5055488;28;20079;-90
2022/01/04 04:35:29;;;;;;;34.78;7.20;;;8.60;99.90;;;;;;5073208;28;20120;-89
2022/01/04 04:37:58;;;;;;;38.13;6.82;;;8.80;99.90;;;;;;5071912;28;20052;-89
2022/01/04 04:40:24;;;;;;;32.75;7.05;;;;;;;;;;5071736;28;20045;-89
2022/01/04 04:42:50;;;;;;;32.42;7.22;;;8.50;99.90;;;;;;5071984;28;20036;-90
2022/01/04 04:45:16;;;;;;;31.10;7.28;;;8.50;99.90;;;;;;5055524;28;20040;-89
2022/01/04 04:47:45;;;;;;;31.90;7.22;;;9.20;99.90;;;;;;5072087;28;20072;-89
2022/01/04 04:50:13;;;;;;;33.90;7.63;;;9.20;99.90;;;;;;5055144;28;20515;-89
2022/01/04 04:52:40;;;;;;;32.80;7.85;;;8.90;99.90;;;;;;5071773;28;20051;-89
2022/01/04 04:55:07;;;;;;;40.53;7.75;;;8.50;99.90;;;;;;5055076;28;20040;-89
2022/01/04 04:57:35;;;;;;;38.30;7.78;;;8.50;99.90;;;;;;5071969;28;20048;-89
2022/01/04 05:00:03;;;;;;;38.22;8.70;;;8.50;99.90;;;;;;5055465;28;20093;-89
2022/01/04 05:02:29;;;;;;;32.20;7.60;;;9.40;99.90;;;;;;5072930;28;20044;-90
2022/01/04 05:04:57;;;;;;;35.97;8.30;;;9.10;99.90;;;;;;5054882;28;20070;-90
2022/01/04 05:07:28;;;;;;;36.83;8.57;;;8.30;99.90;;;;;;5055147;28;20052;-90
2022/01/04 05:10:01;;;;;;;38.33;9.30;;;8.80;99.90;;;;;;5038692;28;20072;-90
2022/01/04 05:12:27;;;;;;;38.22;9.23;;;8.10;99.90;;;;;;5071819;28;20115;-89
2022/01/04 05:14:58;;;;;;;32.13;8.90;;;8.50;99.90;;;;;;5055903;28;20072;-88
2022/01/04 05:17:24;;;;;;;32.25;9.45;;;8.30;99.90;;;;;;5075219;28;20068;-88
2022/01/04 05:19:50;;;;;;;38.45;9.93;;;8.50;99.90;;;;;;5058730;28;20477;-88
2022/01/04 05:22:16;;;;;;;34.45;9.95;;;8.50;99.90;;;;;;5058358;28;20399;-88
2022/01/04 05:24:42;;;;;;;34.75;9.85;;;8.30;99.90;;;;;;5074103;28;20032;-88
2022/01/04 05:27:08;;;;;;;38.65;9.93;;;8.50;99.90;;;;;;5076293;28;20120;-88
2022/01/04 05:29:36;;;;;;;35.75;9.30;;;8.60;99.90;;;;;;5057853;28;20049;-87
2022/01/04 05:32:06;;;;;;;30.65;9.23;;;8.50;99.90;;;;;;5075704;28;20036;-87
2022/01/04 05:34:32;;;;;;;36.00;9.52;;;8.50;99.90;;;;;;5074736;28;20040;-87
2022/01/04 05:36:58;;;;;;;30.10;9.50;;;8.50;99.90;;;;;;5058062;28;20102;-86
2022/01/04 05:39:31;;;;;;;33.03;9.65;;;8.50;99.90;;;;;;5057838;28;20032;-88
2022/01/04 05:41:56;;;;;;;29.65;8.85;;;8.50;99.90;;;;;;5074274;28;20102;-90
2022/01/04 05:44:29;;;;;;;33.20;9.40;;;9.20;99.90;;;;;;5074690;28;20474;-90
2022/01/04 05:46:58;;;;;;;29.20;9.25;;;9.00;99.90;;;;;;5058644;28;20055;-89
2022/01/04 05:49:27;;;;;;;32.40;9.38;;;9.40;99.90;;;;;;5057920;28;20041;-90
2022/01/04 05:51:56;;;;;;;37.97;9.40;;;8.40;99.90;;;;;;5057566;28;20098;-90
2022/01/04 05:54:27;;;;;;;34.08;10.63;;;8.40;99.90;;;;;;5058217;28;20040;-89
2022/01/04 05:56:56;;;;;;;36.03;10.93;;;7.70;99.90;;;;;;5057974;28;20123;-89
2022/01/04 05:59:43;;;;;;;36.00;10.63;;;8.40;99.90;;;;;;5063553;28;20080;-89
2022/01/04 06:02:22;;;;;;;42.00;10.35;;;8.40;99.90;;;;;;5057938;28;20393;-89
2022/01/04 06:05:10;;;;;;;36.78;11.15;;;8.30;99.90;;;;;;5057661;28;20400;-89
2022/01/04 06:07:41;;;;;;;34.60;10.90;;;9.10;99.90;;;;;;5044342;28;20032;-89
2022/01/04 06:10:14;;;;;;;39.10;10.48;;;8.30;99.90;;;;;;5057946;28;20045;-90
2022/01/04 06:15:13;;;;;;;35.10;10.38;;;8.30;99.90;;;;;;5073965;28;20049;-90
2022/01/04 06:17:43;;;;;;;37.38;9.82;;;8.30;99.90;;;;;;5057622;28;20044;-91
2022/01/04 06:20:20;;;;;;;40.28;10.40;;;8.30;99.90;;;;;;5074269;28;20036;-89
2022/01/04 06:22:49;;;;;;;35.95;9.63;;;8.30;99.90;;;;;;5057224;28;20036;-89
2022/01/04 06:25:19;;;;;;;32.33;9.45;;;7.70;99.90;;;;;;5057936;28;20040;-89
2022/01/04 06:27:47;;;;;;;33.80;9.18;;;8.50;99.90;;;;;;5073692;28;20454;-88
2022/01/04 06:30:18;;;;;;;43.28;9.40;;;8.40;99.90;;;;;;5046458;28;20051;-88
2022/01/04 06:32:46;;;;;;;38.50;9.50;;;8.40;99.90;;;;;;5074364;28;20409;-89
2022/01/04 06:35:13;;;;;;;39.25;9.25;;;8.30;99.90;;;;;;5057515;28;20048;-89
2022/01/04 06:37:45;;;;;;;40.80;8.95;;;8.30;99.90;;;;;;5073631;28;20503;-90
2022/01/04 06:40:12;;;;;;;32.33;8.80;;;8.40;99.90;;;;;;5041038;28;20438;-90
2022/01/04 06:42:41;;;;;;;37.53;7.35;;;8.40;99.90;;;;;;5039687;28;20507;-90
2022/01/04 06:45:09;;;;;;;36.45;8.23;;;8.40;99.90;;;;;;5056778;28;20468;-90
2022/01/04 06:47:35;;;;;;;41.45;8.55;;;8.40;99.90;;;;;;5056547;28;20070;-90
2022/01/04 06:50:01;;;;;;;38.22;8.50;;;8.40;99.90;;;;;;5056978;28;20127;-90
2022/01/04 06:52:27;;;;;;;38.65;8.68;;;8.40;99.90;;;;;;5075213;28;20128;-90
2022/01/04 06:54:53;;;;;;;37.10;9.80;;;8.40;99.90;;;;;;5073920;28;20044;-89
2022/01/04 06:57:24;;;;;;;36.00;8.90;;;9.00;99.90;;;;;;5073670;28;20040;-89
2022/01/04 07:00:29;;;;;;;39.38;8.93;;;8.70;99.90;;;;;;5057431;28;20044;-89
2022/01/04 07:02:58;;;;;;;31.83;9.18;;;8.40;99.90;;;;;;5072978;28;20036;-90
2022/01/04 07:05:23;;;;;;;42.78;8.45;;;8.40;99.90;;;;;;5045408;28;20545;-89
2022/01/04 07:07:49;;;;;;;22.80;6.95;;;8.30;99.90;;;;;;5073621;28;20483;-89
2022/01/04 07:10:18;;;;;;;34.42;7.95;;;8.30;99.90;;;;;;5040492;28;20097;-88
2022/01/04 07:12:44;;;;;;;38.20;7.82;;;8.30;99.90;;;;;;5057440;28;20481;-90
2022/01/04 07:15:10;;;;;;;31.55;7.70;;;8.30;99.90;;;;;;5073267;28;20044;-91
2022/01/04 07:17:41;;;;;;;36.58;8.35;;;8.30;99.90;;;;;;5056846;28;20033;-91
2022/01/04 07:20:09;;;;;;;32.22;8.05;;;8.30;99.90;;;;;;5040861;28;20129;-91
2022/01/04 07:22:37;;;;;;;39.08;8.38;;;8.20;99.90;;;;;;5057060;28;20177;-90
2022/01/04 07:25:15;;;;;;;28.00;8.55;;;8.30;99.90;;;;;;5058474;28;20498;-91
2022/01/04 07:27:41;;;;;;;34.83;8.57;;;8.20;99.90;;;;;;5056608;28;20059;-91
2022/01/04 07:30:10;;;;;;;32.35;8.80;;;8.30;99.90;;;;;;5072700;28;20049;-90
2022/01/04 07:32:36;;;;;;;32.35;8.18;;;8.30;99.90;;;;;;5040109;28;20041;-90
2022/01/04 07:35:05;;;;;;;39.42;8.80;;;7.80;99.90;;;;;;5069329;28;20040;-87
2022/01/04 07:37:31;;;;;;;20.60;6.13;;;8.20;99.90;;;;;;5036037;28;20116;-86
2022/01/04 07:40:00;;;;;;;37.40;7.88;;;8.20;99.90;;;;;;5056370;28;20050;-87
2022/01/04 07:42:28;;;;;;;29.38;7.28;;;8.50;99.90;;;;;;5056573;28;20453;-87
2022/01/04 07:44:54;;;;;;;25.13;6.45;;;8.20;99.90;;;;;;5055933;28;20488;-88
2022/01/04 07:47:22;;;;;;;30.17;6.75;;;8.20;99.90;;;;;;5072830;28;20040;-87
2022/01/04 07:49:51;;;;;;;30.15;6.57;;;8.00;99.90;;;;;;5055650;28;20102;-83
2022/01/04 07:52:17;;;;;;;34.53;6.97;;;8.20;99.90;;;;;;5019961;28;20111;-80
2022/01/04 07:54:43;;;;;;;23.15;5.93;;;8.20;99.90;;;;;;5074019;28;20111;-83
2022/01/04 07:57:12;;;;;;;30.55;6.57;;;8.20;99.90;;;;;;5071633;28;20047;-87
2022/01/04 07:59:45;;;;;;;21.73;5.35;;;8.20;99.90;;;;;;5059337;28;20036;-89
2022/01/04 08:02:14;;;;;;;24.00;5.72;;;8.10;99.90;;;;;;5073700;28;20036;-84
2022/01/04 08:04:43;;;;;;;33.55;5.80;;;8.70;99.90;;;;;;5076755;28;20040;-85
2022/01/04 08:07:09;;;;;;;21.95;4.97;;;8.10;99.90;;;;;;5056381;28;20049;-86
2022/01/04 08:09:35;;;;;;;26.17;6.00;;;8.10;99.90;;;;;;5064748;28;20495;-77
2022/01/04 08:12:00;;;;;;;26.95;5.85;;;8.30;99.90;;;;;;5071040;28;20210;-79
2022/01/04 08:14:26;;;;;;;23.75;6.10;;;8.10;99.90;;;;;;5054885;28;20515;-85
2022/01/04 08:16:53;;;;;;;31.30;6.20;;;8.20;99.90;;;;;;5054694;28;20044;-77
2022/01/04 08:19:21;;;;;;;25.10;5.07;;;8.80;99.90;;;;;;5055549;28;20045;-72
2022/01/04 08:21:50;;;;;;;27.80;5.10;;;8.10;99.90;;;;;;5054700;28;20176;-71
2022/01/04 08:24:15;;;;;;;25.23;5.00;;;8.10;99.90;;;;;;5071679;28;20459;-75
2022/01/04 08:26:41;;;;;;;28.55;4.93;;;8.10;99.90;;;;;;5083113;28;20044;-72
2022/01/04 08:29:07;;;;;;;29.67;5.22;;;8.10;99.90;;;;;;5092517;28;20629;-72
2022/01/04 08:31:36;;;;;;;24.33;4.68;;;8.10;99.90;;;;;;5085084;28;20480;-73
2022/01/04 08:34:01;;;;;;;35.45;5.82;;;8.10;99.90;;;;;;5053795;28;20036;-73
2022/01/04 08:36:34;;;;;;;29.95;6.07;;;8.20;99.90;;;;;;5073590;28;20388;-74
2022/01/04 08:39:01;;;;;;;16.58;4.53;;;8.10;99.90;;;;;;5067928;28;20045;-73
2022/01/04 08:41:27;;;;;;;25.10;5.60;;;8.10;99.90;;;;;;5071866;28;20044;-75
2022/01/04 08:43:52;;;;;;;24.60;5.22;;;8.20;99.90;;;;;;5053755;28;20049;-75
2022/01/04 08:46:18;;;;;;;29.25;6.00;;;8.20;99.90;;;;;;5071058;28;20566;-74
2022/01/04 08:48:44;;;;;;;27.35;5.53;;;8.20;99.90;;;;;;5070786;28;20503;-76
2022/01/04 08:51:10;;;;;;;23.02;5.15;;;8.20;99.90;;;;;;5053865;28;20055;-76
2022/01/04 08:53:38;;;;;;;33.20;5.95;;;8.20;99.90;;;;;;5056417;28;20048;-76
2022/01/04 08:56:04;;;;;;;31.17;6.00;;;8.20;99.90;;;;;;5057826;28;20384;-73
2022/01/04 08:58:31;;;;;;;29.98;6.45;;;8.20;99.90;;;;;;5074889;28;20044;-73
2022/01/04 09:00:57;;;;;;;21.55;4.72;;;8.10;99.90;;;;;;5058057;28;20123;-74
2022/01/04 09:03:24;;;;;;;19.75;3.42;;;8.00;99.90;;;;;;5075207;28;20075;-73
2022/01/04 09:05:59;;;;;;;9.52;2.00;;;7.80;99.90;;;;;;5058897;28;20032;-73
2022/01/04 09:08:30;;;;;;;19.58;1.98;;;7.70;99.90;;;;;;5073921;28;20033;-75
2022/01/04 09:10:56;;;;;;;12.75;2.75;;;7.70;99.90;;;;;;5074817;28;20033;-78
2022/01/04 09:13:24;;;;;;;13.70;1.77;;;7.50;99.90;;;;;;5057968;28;20044;-76
2022/01/04 09:19:09;;;;;;;9.77;1.95;;;7.50;99.90;;;;;;5074546;28;20071;-78
2022/01/04 09:21:35;;;;;;;10.85;1.67;;;7.50;99.90;;;;;;5075243;28;20043;-77
2022/01/04 09:24:02;;;;;;;9.45;1.60;;;7.60;99.90;;;;;;5071487;28;20036;-76
2022/01/04 09:26:28;;;;;;;12.43;1.45;;;8.00;99.90;;;;;;5054898;28;20048;-75
2022/01/04 09:28:55;;;;;;;11.85;1.90;;;7.40;99.90;;;;;;5073819;28;20060;-74
2022/01/04 09:31:25;;;;;;;8.55;1.63;;;7.40;99.90;;;;;;5077123;28;20048;-74
2022/01/04 09:33:54;;;;;;;9.02;1.75;;;7.40;99.90;;;;;;5038356;28;20136;-74
2022/01/04 09:36:20;;;;;;;13.35;2.45;;;7.40;99.90;;;;;;5037802;28;20405;-74
2022/01/04 09:38:45;;;;;;;10.35;2.40;;;7.40;99.90;;;;;;5054306;28;20041;-74
2022/01/04 09:41:13;;;;;;;10.32;2.10;;;7.40;99.90;;;;;;5056530;28;20045;-74
2022/01/04 09:43:42;;;;;;;11.82;1.45;;;7.40;99.90;;;;;;5056400;28;20060;-74
2022/01/04 09:46:08;;;;;;;6.72;1.35;;;7.40;99.90;;;;;;5073393;28;20060;-70
2022/01/04 09:48:33;;;;;;;12.82;1.48;;;7.40;99.90;;;;;;5073246;28;20032;-72
2022/01/04 09:51:00;;;;;;;10.68;1.50;;;7.40;99.90;;;;;;5073393;28;20113;-72
2022/01/04 09:53:26;;;;;;;8.35;1.27;;;7.50;99.90;;;;;;5071811;28;20094;-76
2022/01/04 09:55:56;;;;;;;6.07;1.50;;;7.80;99.90;;;;;;5072886;28;20041;-71
2022/01/04 09:58:24;;;;;;;10.30;1.33;;;7.40;99.90;;;;;;5073209;28;20067;-77
2022/01/04 10:00:51;;;;;;;10.23;1.65;;;7.80;99.90;;;;;;5074311;28;20036;-76
2022/01/04 10:03:19;;;;;;;10.30;1.80;;;7.40;99.90;;;;;;5047275;28;20060;-76
2022/01/04 10:05:46;;;;;;;9.55;1.30;;;7.80;99.90;;;;;;5060297;28;20045;-76
2022/01/04 10:08:13;;;;;;;8.98;1.30;;;7.20;99.90;;;;;;5072823;28;20048;-81
2022/01/04 10:10:40;;;;;;;11.15;1.40;;;7.10;99.90;;;;;;5054841;28;20044;-78
2022/01/04 10:13:09;;;;;;;8.02;1.23;;;7.30;99.90;;;;;;5071886;28;20036;-80
2022/01/04 10:15:39;;;;;;;8.82;1.30;;;7.10;99.90;;;;;;5070217;28;20055;-81
2022/01/04 10:18:17;;;;;;;8.98;1.33;;;7.00;99.90;;;;;;5072081;28;20396;-81
2022/01/04 10:20:51;;;;;;;8.48;1.38;;;6.90;99.90;;;;;;5055057;28;20032;-83
2022/01/04 10:23:20;;;;;;;8.65;1.25;;;7.10;99.90;;;;;;5060382;28;20037;-83
2022/01/04 10:25:46;;;;;;;4.57;0.80;;;6.80;99.90;;;;;;5071314;28;20388;-72
2022/01/04 10:28:26;;;;;;;6.05;1.25;;;7.50;99.90;;;;;;5070604;28;20053;-74
2022/01/04 10:30:54;;;;;;;10.27;1.00;;;6.70;99.90;;;;;;5071302;28;20048;-80
2022/01/04 10:33:21;;;;;;;4.82;0.80;;;6.60;99.90;;;;;;5070678;28;20488;-72
2022/01/04 10:35:58;;;;;;;6.05;1.10;;;7.20;99.90;;;;;;5072937;28;20462;-78
2022/01/04 10:38:27;;;;;;;5.55;0.90;;;6.50;99.90;;;;;;5047551;28;20117;-77
2022/01/04 10:41:21;;;;;;;7.68;0.95;;;6.60;99.90;;;;;;5056021;28;20044;-77
2022/01/04 10:43:58;;;;;;;5.43;1.05;;;6.60;99.90;;;;;;5055062;28;20044;-77
2022/01/04 10:47:07;;;;;;;5.53;1.23;;;6.70;99.90;;;;;;5056263;28;20045;-77
2022/01/04 10:49:41;;;;;;;2.40;0.80;;;7.40;99.90;;;;;;5051617;28;20053;-77
2022/01/04 10:52:12;;;;;;;7.65;1.15;;;6.70;99.90;;;;;;5037363;28;20047;-77
2022/01/04 10:54:38;;;;;;;4.85;1.00;;;6.80;99.90;;;;;;5036853;28;20049;-77
2022/01/04 10:57:09;;;;;;;7.20;1.38;;;6.70;99.90;;;;;;5052988;28;20397;-77
2022/01/04 10:59:35;;;;;;;4.70;0.70;;;6.80;99.90;;;;;;5053021;28;20128;-77
2022/01/04 11:02:01;;;;;;;4.93;0.75;;;6.70;99.90;;;;;;5036313;28;20048;-77
2022/01/04 11:04:27;;;;;;;3.72;0.80;;;6.60;99.90;;;;;;5054448;28;20055;-77
2022/01/04 11:07:02;;;;;;;4.50;0.57;;;6.60;99.90;;;;;;5071980;28;20048;-77
2022/01/04 11:09:29;;;;;;;3.22;1.15;;;6.50;99.90;;;;;;5072542;28;20052;-77
2022/01/04 11:11:55;;;;;;;2.88;0.60;;;6.50;99.90;;;;;;5056286;28;20388;-76
2022/01/04 11:14:21;;;;;;;3.03;0.60;;;6.50;99.90;;;;;;5072741;28;20047;-76
2022/01/04 11:16:48;;;;;;;4.90;0.80;;;7.00;99.90;;;;;;5072301;28;20045;-76
2022/01/04 11:19:14;;;;;;;3.58;0.70;;;6.50;99.90;;;;;;5055651;28;20075;-77
2022/01/04 11:21:42;;;;;;;9.05;1.17;;;6.50;99.90;;;;;;5061073;28;20049;-77
2022/01/04 11:24:12;;;;;;;6.28;1.40;;;6.60;99.90;;;;;;5053610;28;20045;-77
2022/01/04 11:26:43;;;;;;;6.25;1.10;;;6.40;99.90;;;;;;5035658;28;20385;-77
2022/01/04 11:29:10;;;;;;;8.00;1.20;;;6.30;99.90;;;;;;5052091;28;20056;-77
2022/01/04 11:32:02;;;;;;;4.75;1.17;;;6.30;99.90;;;;;;5035651;28;20049;-77
2022/01/04 11:34:58;;;;;;;4.53;0.95;;;6.30;99.90;;;;;;5048371;28;20051;-77
2022/01/04 11:37:25;;;;;;;7.90;1.27;;;6.30;99.90;;;;;;5052349;28;20041;-77
2022/01/04 11:39:52;;;;;;;6.30;1.23;;;6.40;99.90;;;;;;5063084;28;20040;-77
2022/01/04 11:42:34;;;;;;;9.45;1.40;;;6.40;99.90;;;;;;5055480;28;20428;-77
2022/01/04 11:45:02;;;;;;;10.50;1.73;;;6.40;99.90;;;;;;5071844;28;20040;-77
2022/01/04 11:47:29;;;;;;;5.75;1.15;;;6.50;99.90;;;;;;5071675;28;20048;-77
2022/01/04 11:50:23;;;;;;;6.35;1.02;;;7.10;99.90;;;;;;5072041;28;20040;-77
2022/01/04 11:52:55;;;;;;;5.70;1.10;;;6.50;99.90;;;;;;5055442;28;20393;-77
2022/01/04 11:55:24;;;;;;;6.97;1.17;;;6.50;99.90;;;;;;5072259;28;20058;-78
2022/01/04 11:57:55;;;;;;;7.82;1.35;;;6.60;99.90;;;;;;5051807;28;20041;-78
2022/01/04 12:00:32;;;;;;;8.18;1.38;;;6.60;99.90;;;;;;5035499;28;20432;-78
2022/01/04 12:03:03;;;;;;;4.72;1.33;;;6.60;99.90;;;;;;5052098;28;20040;-78
2022/01/04 12:05:29;;;;;;;9.88;1.40;;;6.60;99.90;;;;;;5035288;28;20142;-78
2022/01/04 12:07:58;;;;;;;7.93;1.15;;;6.60;99.90;;;;;;5035279;28;20057;-78
2022/01/04 12:10:27;;;;;;;5.63;1.20;;;6.60;99.90;;;;;;5035606;28;20045;-78
2022/01/04 12:13:36;;;;;;;6.50;1.25;;;6.50;99.90;;;;;;5055148;28;20044;-78
2022/01/04 12:16:07;;;;;;;9.10;1.30;;;6.50;99.90;;;;;;4994299;28;20054;-78
2022/01/04 12:18:34;;;;;;;10.90;1.50;;;6.60;99.90;;;;;;4978169;28;20038;-78
2022/01/04 12:21:02;;;;;;;7.30;1.40;;;6.70;99.90;;;;;;5042319;28;20059;-77
2022/01/04 12:23:31;;;;;;;11.30;1.35;;;7.50;99.90;;;;;;5071468;28;20040;-77
2022/01/04 12:26:05;;;;;;;9.23;1.40;;;6.70;99.90;;;;;;5072131;28;20048;-78
2022/01/04 12:28:34;;;;;;;8.07;1.33;;;6.60;99.90;;;;;;5071211;28;20067;-78
2022/01/04 12:31:18;;;;;;;11.88;1.80;;;7.00;99.90;;;;;;5069549;28;20051;-77
2022/01/04 12:33:55;;;;;;;15.32;2.63;;;6.60;99.90;;;;;;5071547;28;20060;-77
2022/01/04 12:36:28;;;;;;;9.48;1.65;;;6.60;99.90;;;;;;5054727;28;20040;-77
2022/01/04 12:38:56;;;;;;;8.98;1.42;;;6.50;99.90;;;;;;5072506;28;20040;-77
2022/01/04 12:41:22;;;;;;;7.78;1.30;;;6.50;99.90;;;;;;5071405;28;20040;-77
2022/01/04 12:43:51;;;;;;;10.95;1.30;;;6.50;99.90;;;;;;5071425;28;20046;-77
2022/01/04 12:46:33;;;;;;;8.90;1.50;;;6.40;99.90;;;;;;5054087;28;20084;-77
2022/01/04 12:49:04;;;;;;;12.73;1.50;;;6.50;99.90;;;;;;5053857;28;20139;-77
2022/01/04 12:51:44;;;;;;;7.28;1.23;;;6.30;99.90;;;;;;5071381;28;20044;-77
2022/01/04 12:54:12;;;;;;;9.10;1.40;;;6.30;99.90;;;;;;5055340;28;20048;-77
2022/01/04 12:57:02;;;;;;;6.30;1.20;;;6.30;99.90;;;;;;5054529;28;20041;-77
2022/01/04 13:00:10;;;;;;;10.35;1.50;;;6.30;99.90;;;;;;5070991;28;20068;-79
2022/01/04 13:02:36;;;;;;;12.70;1.80;;;6.40;99.90;;;;;;5068830;28;20481;-79
2022/01/04 13:05:07;;;;;;;9.50;1.50;;;7.00;99.90;;;;;;5069962;28;20044;-79
2022/01/04 13:07:35;;;;;;;13.90;1.80;;;6.40;99.90;;;;;;5070998;28;20037;-79
2022/01/04 13:10:11;;;;;;;11.13;1.60;;;6.40;99.90;;;;;;5053778;28;20098;-79
2022/01/04 13:12:49;;;;;;;9.48;1.75;;;6.40;99.90;;;;;;5054034;28;20484;-79
2022/01/04 13:15:20;;;;;;;13.02;1.48;;;6.40;99.90;;;;;;5054320;28;20492;-79
2022/01/04 13:17:53;;;;;;;12.35;1.55;;;6.50;99.90;;;;;;5072471;28;20071;-78
2022/01/04 13:20:27;;;;;;;11.30;1.83;;;7.00;99.90;;;;;;5052960;28;20385;-79
2022/01/04 13:22:54;;;;;;;13.00;2.72;;;6.60;99.90;;;;;;5070676;28;20037;-79
2022/01/04 13:25:20;;;;;;;13.68;1.80;;;6.90;99.90;;;;;;5070313;28;20090;-75
2022/01/04 13:27:45;;;;;;;9.73;1.50;;;6.60;99.90;;;;;;5069697;28;20496;-74